createdAt,value
2018-07-21T08:39:32.665Z,18.30
2018-07-21T08:42:01.162Z,18.40
2018-07-21T08:44:29.661Z,18.40
2018-07-21T08:46:58.414Z,18.50
2018-07-21T08:49:27.053Z,18.60
2018-07-21T08:51:55.810Z,18.70
2018-07-21T08:54:24.354Z,18.80
2018-07-21T08:59:21.287Z,18.90
2018-07-21T09:01:50.274Z,19.00
2018-07-21T09:06:47.009Z,19.00
2018-07-21T09:18:57.759Z,19.10
2018-07-21T09:21:26.249Z,19.10
2018-07-21T09:23:55.689Z,18.90
2018-07-21T09:28:52.589Z,19.00
2018-07-21T09:31:21.125Z,19.00
2018-07-21T09:36:17.877Z,19.10
2018-07-21T09:49:10.653Z,18.80
2018-07-21T09:51:39.136Z,18.70
2018-07-21T09:54:07.668Z,18.40
2018-07-21T09:56:36.259Z,18.40
2018-07-21T09:59:04.782Z,18.30
2018-07-21T10:01:33.366Z,18.30
2018-07-21T10:04:01.880Z,18.30
2018-07-21T10:06:30.358Z,18.30
2018-07-21T10:08:58.862Z,18.30
2018-07-21T10:11:28.011Z,18.40
2018-07-21T10:13:56.714Z,18.20
2018-07-21T10:16:25.230Z,18.30
2018-07-21T10:18:53.767Z,18.40
2018-07-21T10:21:22.323Z,18.50
2018-07-21T10:23:50.833Z,18.50
2018-07-21T10:26:24.612Z,18.60
2018-07-21T10:28:58.554Z,18.70
2018-07-21T10:33:55.739Z,18.50
2018-07-21T10:36:24.369Z,18.50
2018-07-21T10:38:52.938Z,18.50
2018-07-21T10:41:22.106Z,18.40
2018-07-21T10:43:50.603Z,18.50
2018-07-21T10:46:19.124Z,18.70
2018-07-21T10:48:47.673Z,18.80
2018-07-21T10:51:17.370Z,18.60
2018-07-21T10:53:46.142Z,18.50
2018-07-21T11:14:21.132Z,18.50
2018-07-21T11:16:49.686Z,18.80
2018-07-21T11:21:46.409Z,19.60
2018-07-21T11:41:27.792Z,19.80
2018-07-21T11:43:56.766Z,19.80
2018-07-21T11:46:25.270Z,20.40
2018-07-21T11:48:53.781Z,20.60
2018-07-21T11:51:22.265Z,20.80
2018-07-21T11:53:50.728Z,20.90
2018-07-21T11:56:19.241Z,20.90
2018-07-21T11:58:47.759Z,20.90
2018-07-21T12:12:04.910Z,21.10
2018-07-21T12:14:33.452Z,21.10
2018-07-21T12:17:02.837Z,21.10
2018-07-21T12:19:31.474Z,21.40
2018-07-21T12:22:00.262Z,21.70
2018-07-21T12:24:28.790Z,21.80
2018-07-21T12:26:57.388Z,21.60
2018-07-21T12:29:26.080Z,22.00
2018-07-21T12:34:22.998Z,22.80
2018-07-21T12:36:51.621Z,23.10
2018-07-21T12:39:20.326Z,23.30
2018-07-21T12:41:49.147Z,23.70
2018-07-21T12:44:18.025Z,23.50
2018-07-21T12:46:47.066Z,23.70
2018-07-21T12:57:30.612Z,23.20
2018-07-21T12:59:59.292Z,23.00
2018-07-21T13:02:27.993Z,23.30
2018-07-21T13:04:58.799Z,23.60
2018-07-21T13:07:27.726Z,24.10
2018-07-21T13:09:56.446Z,24.20
2018-07-21T13:14:53.259Z,24.50
2018-07-21T13:17:21.866Z,24.90
2018-07-21T13:19:50.648Z,24.90
2018-07-21T13:22:19.364Z,25.10
2018-07-21T13:24:48.037Z,24.90
2018-07-21T13:27:17.629Z,24.60
2018-07-21T13:29:46.196Z,24.50
2018-07-21T13:42:49.357Z,24.50
2018-07-21T13:45:18.762Z,24.60
2018-07-21T13:47:48.184Z,25.40
2018-07-21T13:50:17.542Z,25.20
2018-07-21T13:52:46.130Z,25.10
2018-07-21T14:03:05.793Z,25.40
2018-07-21T14:15:29.362Z,25.30
2018-07-21T14:17:57.933Z,25.00
2018-07-21T14:20:26.650Z,25.00
2018-07-21T14:22:55.268Z,25.10
2018-07-21T14:25:23.920Z,25.20
2018-07-21T14:27:52.505Z,25.30
2018-07-21T14:30:21.092Z,25.40
2018-07-21T14:32:49.682Z,25.40
2018-07-21T14:35:18.186Z,25.30
2018-07-21T14:37:46.730Z,25.30
2018-07-21T14:48:26.558Z,25.20
2018-07-21T14:50:55.691Z,25.10
2018-07-21T14:53:24.550Z,24.70
2018-07-21T14:55:53.145Z,24.50
2018-07-21T14:58:21.681Z,24.50
2018-07-21T15:00:50.254Z,24.20
2018-07-21T15:03:18.840Z,24.30
2018-07-21T15:05:47.386Z,24.30
2018-07-21T15:08:17.488Z,24.40
2018-07-21T15:10:46.157Z,24.50
2018-07-21T15:31:47.322Z,24.60
2018-07-21T15:34:24.687Z,24.70
2018-07-21T15:36:53.296Z,25.30
2018-07-21T15:39:21.801Z,25.40
2018-07-21T15:41:50.328Z,25.50
2018-07-21T15:44:18.878Z,25.50
2018-07-21T15:46:47.374Z,25.60
2018-07-21T15:49:17.608Z,25.50
2018-07-21T15:51:46.867Z,25.40
2018-07-21T16:13:03.205Z,25.20
2018-07-21T16:15:32.503Z,25.10
2018-07-21T16:18:01.056Z,24.30
2018-07-21T16:20:29.668Z,24.30
2018-07-21T16:22:58.171Z,24.40
2018-07-21T16:25:26.729Z,24.20
2018-07-21T16:30:23.940Z,24.10
2018-07-21T16:32:56.343Z,23.90
2018-07-21T16:35:25.304Z,23.70
2018-07-21T16:37:53.853Z,23.40
2018-07-21T16:42:50.573Z,23.50
2018-07-21T16:45:19.081Z,23.40
2018-07-21T16:58:25.575Z,23.30
2018-07-21T17:00:54.574Z,23.20
2018-07-21T17:03:23.131Z,23.00
2018-07-21T17:05:51.793Z,22.90
2018-07-21T17:08:20.574Z,22.90
2018-07-21T17:13:17.385Z,22.90
2018-07-21T17:15:45.918Z,22.80
2018-07-21T17:31:49.613Z,22.60
2018-07-21T17:34:18.193Z,22.60
2018-07-21T17:36:47.388Z,22.20
2018-07-21T17:39:17.477Z,22.20
2018-07-21T17:41:46.138Z,22.20
2018-07-21T17:52:49.951Z,22.10
2018-07-21T17:55:18.815Z,22.10
2018-07-21T17:57:47.466Z,22.10
2018-07-21T18:07:58.584Z,22.20
2018-07-21T18:10:27.789Z,22.20
2018-07-21T18:12:56.392Z,22.10
2018-07-21T18:15:25.159Z,22.10
2018-07-21T18:17:53.763Z,22.10
2018-07-21T18:20:22.259Z,22.10
2018-07-21T18:22:50.923Z,21.80
2018-07-21T18:25:19.623Z,21.40
2018-07-21T18:27:48.306Z,21.10
2018-07-21T18:30:17.997Z,21.00
2018-07-21T18:32:46.514Z,20.90
2018-07-21T18:52:49.038Z,20.70
2018-07-21T18:55:18.890Z,20.70
2018-07-21T18:57:47.563Z,19.80
2018-07-21T19:00:18.085Z,19.70
2018-07-21T19:02:46.670Z,19.70
2018-07-21T19:13:27.542Z,19.60
2018-07-21T19:16:01.385Z,19.70
2018-07-21T19:18:29.969Z,19.50
2018-07-21T19:21:04.970Z,19.40
2018-07-21T19:23:33.486Z,19.30
2018-07-21T19:26:07.382Z,19.40
2018-07-21T19:28:36.404Z,19.40
2018-07-21T19:31:05.300Z,19.50
2018-07-21T19:33:34.071Z,19.40
2018-07-21T19:36:02.862Z,19.40
2018-07-21T19:38:31.611Z,19.40
2018-07-21T19:41:04.520Z,19.40
2018-07-21T19:43:33.058Z,19.50
2018-07-21T19:46:01.623Z,19.60
2018-07-21T19:48:30.617Z,19.50
2018-07-21T19:50:59.144Z,19.50
2018-07-21T19:53:27.653Z,19.70
2018-07-21T19:55:56.182Z,19.50
2018-07-21T19:58:24.675Z,19.50
2018-07-21T20:00:53.955Z,19.60
2018-07-21T20:03:22.589Z,19.40
2018-07-21T20:05:51.216Z,19.30
2018-07-21T20:08:19.860Z,19.20
2018-07-21T20:10:48.713Z,19.00
2018-07-21T20:13:18.634Z,19.10
2018-07-21T20:15:47.301Z,18.90
2018-07-21T20:18:17.610Z,18.90
2018-07-21T20:20:46.187Z,18.90
2018-07-21T20:43:05.053Z,18.70
2018-07-21T20:45:33.601Z,18.90
2018-07-21T20:48:02.121Z,19.00
2018-07-21T20:50:30.666Z,19.10
2018-07-21T20:52:59.186Z,19.10
2018-07-21T20:55:28.095Z,19.10
2018-07-21T20:58:00.633Z,19.10
2018-07-21T21:00:29.387Z,19.10
2018-07-21T21:02:57.850Z,19.00
2018-07-21T21:05:29.374Z,19.00
2018-07-21T21:07:58.070Z,19.00
2018-07-21T21:10:26.647Z,19.00
2018-07-21T21:12:55.205Z,18.90
2018-07-21T21:15:23.709Z,18.80
2018-07-21T21:17:52.250Z,18.80
2018-07-21T21:20:20.994Z,18.60
2018-07-21T21:22:50.849Z,18.50
2018-07-21T21:25:19.544Z,18.40
2018-07-21T21:30:18.117Z,18.40
2018-07-21T21:32:47.293Z,18.40
2018-07-21T21:35:18.685Z,18.30
2018-07-21T21:46:35.813Z,18.40
2018-07-21T21:49:04.344Z,18.50
2018-07-21T21:51:33.119Z,18.30
2018-07-21T21:54:01.743Z,18.30
2018-07-21T21:56:30.519Z,18.30
2018-07-21T21:58:58.989Z,18.40
2018-07-21T22:01:27.772Z,18.40
2018-07-21T22:03:56.282Z,18.40
2018-07-21T22:06:24.778Z,18.50
2018-07-21T22:08:53.391Z,18.50
2018-07-21T22:11:21.913Z,18.40
2018-07-21T22:13:50.459Z,18.50
2018-07-21T22:16:19.019Z,18.50
2018-07-21T22:18:47.590Z,18.50
2018-07-21T22:21:17.455Z,18.50
2018-07-21T22:41:29.610Z,18.20
2018-07-21T22:43:58.271Z,18.10
2018-07-21T22:46:26.777Z,17.80
2018-07-21T22:48:55.942Z,17.90
2018-07-21T22:51:24.462Z,17.90
2018-07-21T22:53:52.974Z,18.00
2018-07-21T22:56:21.560Z,18.00
2018-07-21T22:58:50.230Z,18.00
2018-07-21T23:01:19.130Z,18.00
2018-07-21T23:08:44.949Z,18.20
2018-07-21T23:11:13.485Z,18.20
2018-07-21T23:13:41.970Z,18.20
2018-07-21T23:16:10.454Z,18.10
2018-07-21T23:18:38.994Z,18.10
2018-07-21T23:21:07.536Z,18.10
2018-07-21T23:23:36.110Z,18.10
2018-07-21T23:26:04.723Z,18.10
2018-07-21T23:28:33.433Z,18.10
2018-07-21T23:31:02.113Z,18.00
2018-07-21T23:33:31.121Z,18.00
2018-07-21T23:35:59.594Z,18.00
2018-07-21T23:38:28.070Z,17.90
2018-07-21T23:40:56.590Z,18.00
2018-07-21T23:43:25.071Z,18.00
2018-07-21T23:45:53.558Z,18.00
2018-07-21T23:48:22.110Z,18.10
2018-07-21T23:53:19.116Z,18.10
2018-07-21T23:55:47.661Z,18.10
